createdAt,value
2018-06-19T00:00:02.950Z,5
2018-06-19T00:00:15.350Z,221
2018-06-19T00:00:27.755Z,192
2018-06-19T00:00:40.215Z,192
2018-06-19T00:00:52.681Z,192
2018-06-19T00:01:05.268Z,192
2018-06-19T00:01:17.679Z,192
2018-06-19T00:01:30.107Z,172
2018-06-19T00:01:42.497Z,192
2018-06-19T00:01:54.909Z,192
2018-06-19T00:02:07.348Z,192
2018-06-19T00:02:19.784Z,192
2018-06-19T00:02:32.193Z,192
2018-06-19T00:02:44.700Z,188
2018-06-19T00:02:57.133Z,188
2018-06-19T00:03:09.588Z,190
2018-06-19T00:03:21.980Z,190
2018-06-19T00:03:34.372Z,189
2018-06-19T00:03:46.806Z,222
2018-06-19T00:03:59.217Z,225
2018-06-19T00:04:11.619Z,225
2018-06-19T00:04:24.019Z,227
2018-06-19T00:04:36.428Z,211
2018-06-19T00:04:48.831Z,203
2018-06-19T00:05:01.302Z,200
2018-06-19T00:05:13.710Z,199
2018-06-19T00:05:26.108Z,199
2018-06-19T00:05:38.508Z,199
2018-06-19T00:05:50.914Z,202
2018-06-19T00:06:03.335Z,202
2018-06-19T00:06:15.747Z,202
2018-06-19T00:06:28.365Z,202
2018-06-19T00:06:40.919Z,202
2018-06-19T00:06:53.322Z,199
2018-06-19T00:07:05.734Z,199
2018-06-19T00:07:18.225Z,198
2018-06-19T00:07:30.640Z,169
2018-06-19T00:07:43.040Z,169
2018-06-19T00:07:55.503Z,169
2018-06-19T00:08:07.908Z,169
2018-06-19T00:08:20.324Z,169
2018-06-19T00:08:32.711Z,170
2018-06-19T00:08:45.119Z,193
2018-06-19T00:08:57.572Z,193
2018-06-19T00:09:10.002Z,193
2018-06-19T00:09:22.436Z,193
2018-06-19T00:09:34.859Z,193
2018-06-19T00:09:47.254Z,193
2018-06-19T00:09:59.645Z,210
2018-06-19T00:10:12.065Z,210
2018-06-19T00:10:24.474Z,172
2018-06-19T00:10:36.910Z,204
2018-06-19T00:10:49.324Z,202
2018-06-19T00:11:01.727Z,208
2018-06-19T00:11:14.120Z,211
2018-06-19T00:11:26.535Z,211
2018-06-19T00:11:39.113Z,192
2018-06-19T00:11:51.541Z,192
2018-06-19T00:12:03.924Z,231
2018-06-19T00:12:16.346Z,211
2018-06-19T00:12:28.746Z,211
2018-06-19T00:12:41.131Z,185
2018-06-19T00:12:53.539Z,201
2018-06-19T00:13:05.952Z,219
2018-06-19T00:13:18.353Z,187
2018-06-19T00:13:30.782Z,188
2018-06-19T00:13:43.205Z,185
2018-06-19T00:13:55.611Z,185
2018-06-19T00:14:08.000Z,185
2018-06-19T00:14:20.429Z,194
2018-06-19T00:14:32.829Z,193
2018-06-19T00:14:45.236Z,178
2018-06-19T00:14:57.624Z,184
2018-06-19T00:15:10.043Z,195
2018-06-19T00:15:22.432Z,195
2018-06-19T00:15:34.880Z,193
2018-06-19T00:15:47.299Z,211
2018-06-19T00:15:59.758Z,225
2018-06-19T00:16:12.177Z,172
2018-06-19T00:16:24.632Z,173
2018-06-19T00:16:37.075Z,177
2018-06-19T00:16:49.475Z,177
2018-06-19T00:17:01.878Z,234
2018-06-19T00:17:14.261Z,243
2018-06-19T00:17:26.653Z,171
2018-06-19T00:17:39.082Z,171
2018-06-19T00:17:51.703Z,171
2018-06-19T00:18:04.108Z,172
2018-06-19T00:18:16.492Z,172
2018-06-19T00:18:28.960Z,172
2018-06-19T00:18:41.374Z,172
2018-06-19T00:18:53.766Z,172
2018-06-19T00:19:06.183Z,172
2018-06-19T00:19:18.722Z,172
2018-06-19T00:19:31.121Z,172
2018-06-19T00:19:43.521Z,172
2018-06-19T00:19:55.911Z,204
2018-06-19T00:20:08.333Z,202
2018-06-19T00:20:20.723Z,192
2018-06-19T00:20:33.114Z,197
2018-06-19T00:20:45.504Z,198
2018-06-19T00:20:58.060Z,264
2018-06-19T00:21:10.462Z,259
2018-06-19T00:21:22.859Z,266
2018-06-19T00:21:35.289Z,198
2018-06-19T00:21:47.723Z,208
2018-06-19T00:22:00.114Z,189
2018-06-19T00:22:12.514Z,189
2018-06-19T00:22:24.944Z,186
2018-06-19T00:22:37.360Z,187
2018-06-19T00:22:49.755Z,187
2018-06-19T00:23:02.146Z,237
2018-06-19T00:23:14.546Z,242
2018-06-19T00:23:26.989Z,261
2018-06-19T00:23:39.376Z,251
2018-06-19T00:23:51.812Z,251
2018-06-19T00:24:04.353Z,251
2018-06-19T00:24:16.737Z,238
2018-06-19T00:24:29.128Z,240
2018-06-19T00:24:41.525Z,181
2018-06-19T00:24:53.904Z,165
2018-06-19T00:25:06.295Z,166
2018-06-19T00:25:18.696Z,192
2018-06-19T00:25:31.094Z,193
2018-06-19T00:25:43.474Z,193
2018-06-19T00:25:55.864Z,193
2018-06-19T00:26:08.259Z,193
2018-06-19T00:26:20.706Z,351
2018-06-19T00:26:33.092Z,46
2018-06-19T00:26:45.512Z,290
2018-06-19T00:26:58.222Z,290
2018-06-19T00:27:10.622Z,290
2018-06-19T00:27:23.025Z,287
2018-06-19T00:27:35.441Z,287
2018-06-19T00:27:48.082Z,287
2018-06-19T00:28:00.489Z,287
2018-06-19T00:28:12.890Z,279
2018-06-19T00:28:25.284Z,272
2018-06-19T00:28:37.691Z,232
2018-06-19T00:28:50.091Z,232
2018-06-19T00:29:02.532Z,228
2018-06-19T00:29:14.971Z,228
2018-06-19T00:29:27.384Z,228
2018-06-19T00:29:39.912Z,228
2018-06-19T00:29:52.312Z,228
2018-06-19T00:30:04.709Z,228
2018-06-19T00:30:17.113Z,213
2018-06-19T00:30:29.501Z,213
2018-06-19T00:30:41.883Z,232
2018-06-19T00:30:54.306Z,253
2018-06-19T00:31:06.708Z,253
2018-06-19T00:31:19.099Z,165
2018-06-19T00:31:31.556Z,175
2018-06-19T00:31:44.021Z,176
2018-06-19T00:31:56.528Z,176
2018-06-19T00:32:08.932Z,176
2018-06-19T00:32:21.347Z,176
2018-06-19T00:32:33.749Z,199
2018-06-19T00:32:46.165Z,199
2018-06-19T00:32:58.562Z,191
2018-06-19T00:33:10.965Z,191
2018-06-19T00:33:23.393Z,191
2018-06-19T00:33:35.805Z,191
2018-06-19T00:33:48.217Z,240
2018-06-19T00:34:00.638Z,294
2018-06-19T00:34:13.043Z,294
2018-06-19T00:34:25.467Z,294
2018-06-19T00:34:37.960Z,288
2018-06-19T00:34:50.358Z,219
2018-06-19T00:35:02.781Z,219
2018-06-19T00:35:15.209Z,219
2018-06-19T00:35:27.639Z,219
2018-06-19T00:35:40.049Z,219
2018-06-19T00:35:52.485Z,211
2018-06-19T00:36:04.922Z,211
2018-06-19T00:36:17.328Z,211
2018-06-19T00:36:29.731Z,211
2018-06-19T00:36:42.127Z,211
2018-06-19T00:36:54.548Z,211
2018-06-19T00:37:07.004Z,211
2018-06-19T00:37:19.432Z,211
2018-06-19T00:37:31.813Z,211
2018-06-19T00:37:44.201Z,211
2018-06-19T00:37:56.595Z,311
2018-06-19T00:38:08.997Z,313
2018-06-19T00:38:21.395Z,313
2018-06-19T00:38:33.796Z,313
2018-06-19T00:38:46.193Z,313
2018-06-19T00:38:58.596Z,280
2018-06-19T00:39:11.008Z,281
2018-06-19T00:39:23.400Z,280
2018-06-19T00:39:35.802Z,281
2018-06-19T00:39:48.343Z,279
2018-06-19T00:40:00.754Z,277
2018-06-19T00:40:13.151Z,211
2018-06-19T00:40:25.550Z,211
2018-06-19T00:40:37.955Z,211
2018-06-19T00:40:50.331Z,211
2018-06-19T00:41:02.730Z,211
2018-06-19T00:41:15.113Z,211
2018-06-19T00:41:27.514Z,211
2018-06-19T00:41:39.986Z,211
2018-06-19T00:41:52.529Z,211
2018-06-19T00:42:04.928Z,211
2018-06-19T00:42:17.339Z,243
2018-06-19T00:42:29.763Z,243
2018-06-19T00:42:42.177Z,200
2018-06-19T00:42:54.568Z,228
2018-06-19T00:43:07.001Z,223
2018-06-19T00:43:19.401Z,223
2018-06-19T00:43:31.789Z,223
2018-06-19T00:43:44.202Z,242
2018-06-19T00:43:56.605Z,245
2018-06-19T00:44:09.001Z,260
2018-06-19T00:44:21.417Z,240
2018-06-19T00:44:33.811Z,205
2018-06-19T00:44:46.211Z,205
2018-06-19T00:44:58.619Z,201
2018-06-19T00:45:11.035Z,200
2018-06-19T00:45:23.435Z,200
2018-06-19T00:45:35.859Z,200
2018-06-19T00:45:48.308Z,200
2018-06-19T00:46:01.027Z,200
2018-06-19T00:46:13.426Z,200
2018-06-19T00:46:25.821Z,200
2018-06-19T00:46:38.221Z,200
2018-06-19T00:46:50.622Z,200
2018-06-19T00:47:03.027Z,200
2018-06-19T00:47:15.433Z,200
2018-06-19T00:47:27.809Z,200
2018-06-19T00:47:40.271Z,200
2018-06-19T00:47:52.719Z,200
2018-06-19T00:48:05.122Z,200
2018-06-19T00:48:17.550Z,200
2018-06-19T00:48:29.962Z,200
2018-06-19T00:48:42.493Z,200
2018-06-19T00:48:54.882Z,201
2018-06-19T00:49:07.298Z,204
2018-06-19T00:49:19.737Z,204
2018-06-19T00:49:32.131Z,204
2018-06-19T00:49:44.536Z,204
2018-06-19T00:49:56.963Z,204
2018-06-19T00:50:09.374Z,238
2018-06-19T00:50:21.777Z,207
2018-06-19T00:50:34.182Z,207
2018-06-19T00:50:46.561Z,207
2018-06-19T00:50:58.951Z,207
2018-06-19T00:51:11.367Z,207
2018-06-19T00:51:23.750Z,207
2018-06-19T00:51:36.189Z,207
2018-06-19T00:51:48.628Z,224
2018-06-19T00:52:01.028Z,228
2018-06-19T00:52:13.451Z,228
2018-06-19T00:52:25.878Z,228
2018-06-19T00:52:38.276Z,236
2018-06-19T00:52:50.658Z,286
2018-06-19T00:53:03.058Z,256
2018-06-19T00:53:15.440Z,243
2018-06-19T00:53:27.833Z,254
2018-06-19T00:53:40.290Z,254
2018-06-19T00:53:52.676Z,327
2018-06-19T00:54:05.066Z,317
2018-06-19T00:54:17.537Z,321
2018-06-19T00:54:29.921Z,297
2018-06-19T00:54:42.363Z,273
2018-06-19T00:54:54.782Z,259
2018-06-19T00:55:07.185Z,277
2018-06-19T00:55:19.611Z,206
2018-06-19T00:55:32.034Z,204
2018-06-19T00:55:44.465Z,204
2018-06-19T00:55:56.872Z,204
2018-06-19T00:56:09.267Z,204
2018-06-19T00:56:21.703Z,204
2018-06-19T00:56:34.539Z,204
2018-06-19T00:56:47.351Z,204
2018-06-19T00:56:59.777Z,225
2018-06-19T00:57:12.186Z,225
2018-06-19T00:57:24.597Z,225
2018-06-19T00:57:36.998Z,225
2018-06-19T00:57:49.386Z,225
2018-06-19T00:58:01.816Z,225
2018-06-19T00:58:14.229Z,225
2018-06-19T00:58:26.680Z,225
2018-06-19T00:58:39.077Z,225
2018-06-19T00:58:51.469Z,228
2018-06-19T00:59:03.881Z,295
2018-06-19T00:59:16.508Z,292
2018-06-19T00:59:28.903Z,292
2018-06-19T00:59:41.302Z,292
2018-06-19T00:59:53.711Z,292
2018-06-19T01:00:06.146Z,292
2018-06-19T01:00:18.549Z,292
2018-06-19T01:00:30.964Z,150
2018-06-19T01:00:43.424Z,228
2018-06-19T01:00:55.850Z,272
2018-06-19T01:01:08.410Z,221
2018-06-19T01:01:20.839Z,309
2018-06-19T01:01:33.260Z,310
2018-06-19T01:01:45.701Z,310
2018-06-19T01:01:58.170Z,310
2018-06-19T01:02:10.617Z,310
2018-06-19T01:02:23.019Z,310
2018-06-19T01:02:35.419Z,325
2018-06-19T01:02:47.972Z,290
2018-06-19T01:03:00.382Z,273
2018-06-19T01:03:12.794Z,296
2018-06-19T01:03:25.181Z,318
2018-06-19T01:03:37.581Z,284
2018-06-19T01:03:49.990Z,304
2018-06-19T01:04:02.413Z,300
2018-06-19T01:04:14.872Z,327
2018-06-19T01:04:27.288Z,295
2018-06-19T01:04:39.700Z,284
2018-06-19T01:04:52.100Z,254
2018-06-19T01:05:04.483Z,253
2018-06-19T01:05:16.869Z,309
2018-06-19T01:05:29.250Z,322
2018-06-19T01:05:41.659Z,282
2018-06-19T01:05:54.040Z,313
2018-06-19T01:06:06.446Z,288
2018-06-19T01:06:18.916Z,288
2018-06-19T01:06:31.414Z,288
2018-06-19T01:06:43.974Z,273
2018-06-19T01:06:56.375Z,273
2018-06-19T01:07:08.752Z,273
2018-06-19T01:07:21.258Z,305
2018-06-19T01:07:33.649Z,270
2018-06-19T01:07:46.037Z,293
2018-06-19T01:07:58.438Z,312
2018-06-19T01:08:10.885Z,315
2018-06-19T01:08:23.270Z,311
2018-06-19T01:08:35.661Z,284
2018-06-19T01:08:48.063Z,254
2018-06-19T01:09:00.465Z,302
2018-06-19T01:09:12.857Z,302
2018-06-19T01:09:25.273Z,302
2018-06-19T01:09:37.734Z,342
2018-06-19T01:09:50.135Z,290
2018-06-19T01:10:02.542Z,277
2018-06-19T01:10:14.942Z,257
2018-06-19T01:10:27.360Z,257
2018-06-19T01:10:39.811Z,267
2018-06-19T01:10:52.203Z,294
2018-06-19T01:11:04.631Z,296
2018-06-19T01:11:17.034Z,281
2018-06-19T01:11:29.452Z,193
2018-06-19T01:11:41.882Z,144
2018-06-19T01:11:54.315Z,263
2018-06-19T01:12:06.847Z,340
2018-06-19T01:12:19.263Z,340
2018-06-19T01:12:31.686Z,318
2018-06-19T01:12:44.082Z,319
2018-06-19T01:12:56.475Z,259
2018-06-19T01:13:08.864Z,304
2018-06-19T01:13:21.277Z,309
2018-06-19T01:13:33.681Z,332
2018-06-19T01:13:46.078Z,307
2018-06-19T01:13:58.471Z,288
2018-06-19T01:14:10.908Z,290
2018-06-19T01:14:23.327Z,127
2018-06-19T01:14:35.734Z,311
2018-06-19T01:14:48.129Z,331
2018-06-19T01:15:00.524Z,315
2018-06-19T01:15:12.955Z,303
2018-06-19T01:15:25.345Z,300
2018-06-19T01:15:37.756Z,285
2018-06-19T01:15:50.183Z,342
2018-06-19T01:16:02.581Z,311
2018-06-19T01:16:14.984Z,244
2018-06-19T01:16:27.379Z,202
2018-06-19T01:16:39.768Z,268
2018-06-19T01:16:52.237Z,262
2018-06-19T01:17:04.706Z,262
2018-06-19T01:17:17.131Z,263
2018-06-19T01:17:29.538Z,315
2018-06-19T01:17:41.968Z,244
2018-06-19T01:17:54.498Z,325
2018-06-19T01:18:06.879Z,319
2018-06-19T01:18:19.277Z,296
2018-06-19T01:18:31.668Z,294
2018-06-19T01:18:44.051Z,318
2018-06-19T01:18:56.422Z,288
2018-06-19T01:19:08.823Z,313
2018-06-19T01:19:21.330Z,306
2018-06-19T01:19:33.727Z,306
2018-06-19T01:19:46.134Z,306
2018-06-19T01:19:58.511Z,306
2018-06-19T01:20:10.924Z,286
2018-06-19T01:20:23.323Z,333
2018-06-19T01:20:35.714Z,261
2018-06-19T01:20:48.115Z,271
2018-06-19T01:21:00.510Z,261
2018-06-19T01:21:12.914Z,292
2018-06-19T01:21:25.325Z,311
2018-06-19T01:21:37.879Z,314
2018-06-19T01:21:50.314Z,306
2018-06-19T01:22:02.754Z,299
2018-06-19T01:22:15.156Z,274
2018-06-19T01:22:27.561Z,288
2018-06-19T01:22:39.944Z,283
2018-06-19T01:22:52.333Z,306
2018-06-19T01:23:04.737Z,302
2018-06-19T01:23:17.130Z,310
2018-06-19T01:23:29.524Z,320
2018-06-19T01:23:41.920Z,319
2018-06-19T01:23:54.447Z,320
2018-06-19T01:24:06.861Z,314
2018-06-19T01:24:19.271Z,306
2018-06-19T01:24:31.699Z,287
2018-06-19T01:24:44.098Z,302
2018-06-19T01:24:56.489Z,271
2018-06-19T01:25:08.909Z,269
2018-06-19T01:25:21.294Z,336
2018-06-19T01:25:33.876Z,290
2018-06-19T01:25:46.392Z,294
2018-06-19T01:25:58.784Z,277
2018-06-19T01:26:11.176Z,281
2018-06-19T01:26:23.573Z,304
2018-06-19T01:26:35.978Z,309
2018-06-19T01:26:48.380Z,319
2018-06-19T01:27:01.059Z,302
2018-06-19T01:27:13.598Z,302
2018-06-19T01:27:26.009Z,302
2018-06-19T01:27:38.415Z,188
2018-06-19T01:27:50.803Z,292
2018-06-19T01:28:03.219Z,292
2018-06-19T01:28:15.668Z,293
2018-06-19T01:28:28.110Z,293
2018-06-19T01:28:40.940Z,300
2018-06-19T01:28:53.696Z,338
2018-06-19T01:29:06.106Z,345
2018-06-19T01:29:18.493Z,296
2018-06-19T01:29:30.907Z,336
2018-06-19T01:29:43.295Z,336
2018-06-19T01:29:55.726Z,236
2018-06-19T01:30:08.128Z,284
2018-06-19T01:30:20.545Z,292
2018-06-19T01:30:32.954Z,313
2018-06-19T01:30:45.356Z,313
2018-06-19T01:30:57.759Z,289
2018-06-19T01:31:10.222Z,321
2018-06-19T01:31:22.606Z,338
2018-06-19T01:31:35.040Z,247
2018-06-19T01:31:47.469Z,205
2018-06-19T01:31:59.857Z,326
2018-06-19T01:32:12.301Z,265
2018-06-19T01:32:24.702Z,265
2018-06-19T01:32:37.087Z,314
2018-06-19T01:32:49.503Z,321
2018-06-19T01:33:01.901Z,316
2018-06-19T01:33:14.296Z,316
2018-06-19T01:33:26.716Z,328
2018-06-19T01:33:39.517Z,329
2018-06-19T01:33:51.922Z,329
2018-06-19T01:34:04.319Z,329
2018-06-19T01:34:16.714Z,265
2018-06-19T01:34:29.105Z,256
2018-06-19T01:34:41.510Z,311
2018-06-19T01:34:53.903Z,309
2018-06-19T01:35:06.301Z,309
2018-06-19T01:35:18.721Z,311
2018-06-19T01:35:31.137Z,290
2018-06-19T01:35:43.534Z,275
2018-06-19T01:35:55.940Z,290
2018-06-19T01:36:08.351Z,295
2018-06-19T01:36:20.769Z,290
2018-06-19T01:36:33.150Z,304
2018-06-19T01:36:45.545Z,299
2018-06-19T01:36:57.955Z,288
2018-06-19T01:37:10.376Z,288
2018-06-19T01:37:22.850Z,294
2018-06-19T01:37:35.281Z,301
2018-06-19T01:37:47.739Z,292
2018-06-19T01:38:00.621Z,321
2018-06-19T01:38:14.463Z,309
2018-06-19T01:38:27.674Z,325
2018-06-19T01:38:40.101Z,257
2018-06-19T01:38:52.489Z,245
2018-06-19T01:39:04.902Z,265
2018-06-19T01:39:17.303Z,284
2018-06-19T01:39:29.716Z,284
2018-06-19T01:39:42.105Z,285
2018-06-19T01:39:54.506Z,293
2018-06-19T01:40:06.926Z,259
2018-06-19T01:40:19.323Z,288
2018-06-19T01:40:31.725Z,325
2018-06-19T01:40:44.151Z,288
2018-06-19T01:40:56.732Z,323
2018-06-19T01:41:09.124Z,248
2018-06-19T01:41:21.525Z,243
2018-06-19T01:41:33.915Z,257
2018-06-19T01:41:46.326Z,274
2018-06-19T01:41:58.833Z,311
2018-06-19T01:42:11.318Z,295
2018-06-19T01:42:23.719Z,298
2018-06-19T01:42:36.106Z,355
2018-06-19T01:42:48.526Z,303
2018-06-19T01:43:00.938Z,297
2018-06-19T01:43:13.348Z,294
2018-06-19T01:43:25.765Z,298
2018-06-19T01:43:38.315Z,315
2018-06-19T01:43:50.737Z,293
2018-06-19T01:44:03.140Z,257
2018-06-19T01:44:15.535Z,327
2018-06-19T01:44:27.940Z,279
2018-06-19T01:44:40.331Z,282
2018-06-19T01:44:52.732Z,266
2018-06-19T01:45:05.144Z,221
2018-06-19T01:45:17.539Z,242
2018-06-19T01:45:29.925Z,355
2018-06-19T01:45:42.343Z,294
2018-06-19T01:45:54.880Z,300
2018-06-19T01:46:07.292Z,301
2018-06-19T01:46:19.680Z,281
2018-06-19T01:46:32.082Z,281
2018-06-19T01:46:44.485Z,281
2018-06-19T01:46:56.916Z,335
2018-06-19T01:47:09.327Z,317
2018-06-19T01:47:21.747Z,294
2018-06-19T01:47:34.151Z,299
2018-06-19T01:47:46.543Z,302
2018-06-19T01:47:58.935Z,307
2018-06-19T01:48:11.331Z,331
2018-06-19T01:48:23.728Z,263
2018-06-19T01:48:36.271Z,319
2018-06-19T01:48:48.681Z,264
2018-06-19T01:49:01.100Z,292
2018-06-19T01:49:13.559Z,306
2018-06-19T01:49:25.966Z,306
2018-06-19T01:49:38.400Z,283
2018-06-19T01:49:50.810Z,283
2018-06-19T01:50:03.202Z,283
2018-06-19T01:50:15.605Z,284
2018-06-19T01:50:27.998Z,301
2018-06-19T01:50:40.400Z,305
2018-06-19T01:50:52.784Z,286
2018-06-19T01:51:05.203Z,292
2018-06-19T01:51:17.621Z,280
2018-06-19T01:51:30.020Z,242
2018-06-19T01:51:42.416Z,217
2018-06-19T01:51:54.802Z,5
2018-06-19T01:52:07.194Z,273
2018-06-19T01:52:19.605Z,274
2018-06-19T01:52:32.013Z,272
2018-06-19T01:52:44.398Z,272
2018-06-19T01:52:56.790Z,273
2018-06-19T01:53:09.195Z,269
2018-06-19T01:53:21.573Z,289
2018-06-19T01:53:33.993Z,147
2018-06-19T01:53:46.386Z,230
2018-06-19T01:53:58.759Z,212
2018-06-19T01:54:11.153Z,186
2018-06-19T01:54:23.548Z,325
2018-06-19T01:54:35.947Z,265
2018-06-19T01:54:48.361Z,270
2018-06-19T01:55:00.761Z,270
2018-06-19T01:55:13.176Z,270
2018-06-19T01:55:25.556Z,320
2018-06-19T01:55:37.952Z,319
2018-06-19T01:55:50.348Z,317
2018-06-19T01:56:02.734Z,315
2018-06-19T01:56:15.145Z,333
2018-06-19T01:56:27.546Z,333
2018-06-19T01:56:39.957Z,333
2018-06-19T01:56:52.355Z,333
2018-06-19T01:57:04.782Z,333
2018-06-19T01:57:17.208Z,230
2018-06-19T01:57:29.665Z,230
2018-06-19T01:57:42.053Z,288
2018-06-19T01:57:54.442Z,246
2018-06-19T01:58:06.834Z,234
2018-06-19T01:58:19.220Z,250
2018-06-19T01:58:31.664Z,250
2018-06-19T01:58:44.132Z,250
2018-06-19T01:58:56.527Z,351
2018-06-19T01:59:08.919Z,291
2018-06-19T01:59:21.307Z,290
2018-06-19T01:59:33.705Z,290
2018-06-19T01:59:46.123Z,279
2018-06-19T01:59:58.624Z,259
2018-06-19T02:00:11.020Z,258
2018-06-19T02:00:23.422Z,258
2018-06-19T02:00:35.846Z,302
2018-06-19T02:00:48.262Z,275
2018-06-19T02:01:00.744Z,273
2018-06-19T02:01:13.324Z,273
2018-06-19T02:01:25.748Z,273
2018-06-19T02:01:38.147Z,314
2018-06-19T02:01:50.580Z,319
2018-06-19T02:02:03.062Z,279
2018-06-19T02:02:15.491Z,288
2018-06-19T02:02:27.948Z,288
2018-06-19T02:02:40.479Z,245
2018-06-19T02:02:52.886Z,292
2018-06-19T02:03:05.307Z,317
2018-06-19T02:03:17.735Z,313
2018-06-19T02:03:30.125Z,294
2018-06-19T02:03:42.515Z,294
2018-06-19T02:03:54.942Z,294
2018-06-19T02:04:07.345Z,294
2018-06-19T02:04:19.793Z,294
2018-06-19T02:04:32.187Z,240
2018-06-19T02:04:44.587Z,246
2018-06-19T02:04:57.002Z,327
2018-06-19T02:05:09.397Z,297
2018-06-19T02:05:21.797Z,283
2018-06-19T02:05:34.238Z,360
2018-06-19T02:05:46.642Z,355
2018-06-19T02:05:59.045Z,348
2018-06-19T02:06:11.460Z,348
2018-06-19T02:06:23.872Z,317
2018-06-19T02:06:36.393Z,289
2018-06-19T02:06:48.806Z,291
2018-06-19T02:07:01.296Z,277
2018-06-19T02:07:13.716Z,277
2018-06-19T02:07:26.193Z,277
2018-06-19T02:07:38.581Z,277
2018-06-19T02:07:50.965Z,277
2018-06-19T02:08:03.344Z,277
2018-06-19T02:08:15.733Z,258
2018-06-19T02:08:28.118Z,250
2018-06-19T02:08:40.604Z,229
2018-06-19T02:08:53.031Z,229
2018-06-19T02:09:05.441Z,303
2018-06-19T02:09:17.849Z,303
2018-06-19T02:09:30.252Z,307
2018-06-19T02:09:42.646Z,314
2018-06-19T02:09:55.112Z,318
2018-06-19T02:10:07.530Z,311
2018-06-19T02:10:19.920Z,312
2018-06-19T02:10:32.329Z,312
2018-06-19T02:10:44.716Z,312
2018-06-19T02:10:57.151Z,310
2018-06-19T02:11:09.573Z,302
2018-06-19T02:11:22.106Z,251
2018-06-19T02:11:34.512Z,254
2018-06-19T02:11:46.925Z,274
2018-06-19T02:11:59.359Z,274
2018-06-19T02:12:11.764Z,274
2018-06-19T02:12:24.198Z,275
2018-06-19T02:12:36.601Z,274
2018-06-19T02:12:48.986Z,277
2018-06-19T02:13:01.385Z,277
2018-06-19T02:13:13.782Z,277
2018-06-19T02:13:26.175Z,263
2018-06-19T02:13:38.557Z,240
2018-06-19T02:13:50.980Z,240
2018-06-19T02:14:03.392Z,242
2018-06-19T02:14:15.791Z,299
2018-06-19T02:14:28.238Z,284
2018-06-19T02:14:40.653Z,319
2018-06-19T02:14:53.067Z,319
2018-06-19T02:15:05.495Z,319
2018-06-19T02:15:17.953Z,319
2018-06-19T02:15:30.394Z,319
2018-06-19T02:15:42.778Z,319
2018-06-19T02:15:55.211Z,306
2018-06-19T02:16:07.621Z,306
2018-06-19T02:16:20.009Z,306
2018-06-19T02:16:32.410Z,306
2018-06-19T02:16:44.805Z,313
2018-06-19T02:16:57.204Z,304
2018-06-19T02:17:09.606Z,304
2018-06-19T02:17:22.028Z,304
2018-06-19T02:17:34.419Z,304
2018-06-19T02:17:46.817Z,304
2018-06-19T02:17:59.391Z,304
2018-06-19T02:18:11.784Z,304
2018-06-19T02:18:24.178Z,304
2018-06-19T02:18:36.590Z,304
2018-06-19T02:18:49.023Z,304
2018-06-19T02:19:01.445Z,304
2018-06-19T02:19:14.010Z,304
2018-06-19T02:19:26.398Z,297
2018-06-19T02:19:38.835Z,229
2018-06-19T02:19:51.222Z,229
2018-06-19T02:20:03.661Z,229
2018-06-19T02:20:16.090Z,252
2018-06-19T02:20:28.480Z,252
2018-06-19T02:20:40.863Z,252
2018-06-19T02:20:53.269Z,36
2018-06-19T02:21:05.673Z,36
2018-06-19T02:21:18.083Z,246
2018-06-19T02:21:30.511Z,246
2018-06-19T02:21:42.910Z,246
2018-06-19T02:21:55.322Z,246
2018-06-19T02:22:07.724Z,246
2018-06-19T02:22:20.136Z,246
2018-06-19T02:22:32.536Z,246
2018-06-19T02:22:44.926Z,246
2018-06-19T02:22:57.321Z,246
2018-06-19T02:23:09.897Z,246
2018-06-19T02:23:22.310Z,307
2018-06-19T02:23:34.711Z,307
2018-06-19T02:23:47.096Z,307
2018-06-19T02:23:59.677Z,307
2018-06-19T02:24:12.083Z,307
2018-06-19T02:24:24.474Z,307
2018-06-19T02:24:36.866Z,307
2018-06-19T02:24:49.264Z,307
2018-06-19T02:25:01.849Z,307
2018-06-19T02:25:14.257Z,307
2018-06-19T02:25:26.682Z,246
2018-06-19T02:25:39.077Z,250
2018-06-19T02:25:51.494Z,263
2018-06-19T02:26:03.904Z,259
2018-06-19T02:26:16.305Z,269
2018-06-19T02:26:28.712Z,276
2018-06-19T02:26:41.106Z,276
2018-06-19T02:26:53.518Z,305
2018-06-19T02:27:06.283Z,305
2018-06-19T02:27:18.705Z,305
2018-06-19T02:27:31.101Z,305
2018-06-19T02:27:43.483Z,267
2018-06-19T02:27:55.851Z,267
2018-06-19T02:28:08.278Z,254
2018-06-19T02:28:20.757Z,259
2018-06-19T02:28:33.151Z,259
2018-06-19T02:28:45.568Z,259
2018-06-19T02:28:57.961Z,246
2018-06-19T02:29:10.347Z,246
2018-06-19T02:29:22.875Z,246
2018-06-19T02:29:35.293Z,248
2018-06-19T02:29:47.742Z,248
2018-06-19T02:30:00.152Z,248
2018-06-19T02:30:12.596Z,248
2018-06-19T02:30:25.029Z,298
2018-06-19T02:30:37.449Z,302
2018-06-19T02:30:49.936Z,302
2018-06-19T02:31:02.387Z,294
2018-06-19T02:31:14.836Z,294
2018-06-19T02:31:27.258Z,294
2018-06-19T02:31:39.676Z,294
2018-06-19T02:31:52.101Z,294
2018-06-19T02:32:04.520Z,294
2018-06-19T02:32:16.947Z,294
2018-06-19T02:32:29.373Z,294
2018-06-19T02:32:41.781Z,294
2018-06-19T02:32:54.206Z,294
2018-06-19T02:33:06.641Z,294
2018-06-19T02:33:19.060Z,294
2018-06-19T02:33:31.505Z,294
2018-06-19T02:33:43.936Z,294
2018-06-19T02:33:56.397Z,294
2018-06-19T02:34:08.819Z,294
2018-06-19T02:34:21.263Z,294
2018-06-19T02:34:33.690Z,294
2018-06-19T02:34:46.104Z,294
2018-06-19T02:34:58.513Z,294
2018-06-19T02:35:10.942Z,294
2018-06-19T02:35:23.335Z,294
2018-06-19T02:35:35.747Z,266
2018-06-19T02:35:48.192Z,266
2018-06-19T02:36:00.586Z,266
2018-06-19T02:36:13.029Z,266
2018-06-19T02:36:25.421Z,266
2018-06-19T02:36:37.849Z,266
2018-06-19T02:36:50.283Z,266
2018-06-19T02:37:02.723Z,266
2018-06-19T02:37:15.152Z,266
2018-06-19T02:37:27.577Z,266
2018-06-19T02:37:39.970Z,257
2018-06-19T02:37:52.380Z,250
2018-06-19T02:38:04.784Z,250
2018-06-19T02:38:17.195Z,250
2018-06-19T02:38:29.628Z,250
2018-06-19T02:38:42.059Z,250
2018-06-19T02:38:54.490Z,250
2018-06-19T02:39:06.925Z,250
2018-06-19T02:39:19.398Z,250
2018-06-19T02:39:31.827Z,250
2018-06-19T02:39:44.259Z,250
2018-06-19T02:39:56.714Z,250
2018-06-19T02:40:09.139Z,250
2018-06-19T02:40:21.677Z,250
2018-06-19T02:40:34.168Z,250
2018-06-19T02:40:46.609Z,250
2018-06-19T02:40:59.050Z,250
2018-06-19T02:41:11.488Z,250
2018-06-19T02:41:23.997Z,250
2018-06-19T02:41:36.419Z,241
2018-06-19T02:41:48.850Z,176
2018-06-19T02:42:01.373Z,236
2018-06-19T02:42:13.867Z,231
2018-06-19T02:42:26.284Z,231
2018-06-19T02:42:38.695Z,183
2018-06-19T02:42:51.168Z,184
2018-06-19T02:43:03.554Z,184
2018-06-19T02:43:15.962Z,184
2018-06-19T02:43:28.370Z,186
2018-06-19T02:43:40.781Z,319
2018-06-19T02:43:53.196Z,319
2018-06-19T02:44:05.615Z,319
2018-06-19T02:44:18.052Z,266
2018-06-19T02:44:30.539Z,257
2018-06-19T02:44:42.965Z,252
2018-06-19T02:44:55.383Z,252
2018-06-19T02:45:07.823Z,252
2018-06-19T02:45:20.243Z,252
2018-06-19T02:45:32.665Z,252
2018-06-19T02:45:45.072Z,252
2018-06-19T02:45:57.565Z,252
2018-06-19T02:46:09.991Z,232
2018-06-19T02:46:22.389Z,232
2018-06-19T02:46:34.818Z,232
2018-06-19T02:46:47.244Z,232
2018-06-19T02:46:59.650Z,232
2018-06-19T02:47:12.071Z,232
2018-06-19T02:47:24.486Z,232
2018-06-19T02:47:36.897Z,203
2018-06-19T02:47:49.374Z,229
2018-06-19T02:48:01.784Z,229
2018-06-19T02:48:14.211Z,194
2018-06-19T02:48:26.657Z,194
2018-06-19T02:48:39.260Z,194
2018-06-19T02:48:51.733Z,244
2018-06-19T02:49:04.154Z,244
2018-06-19T02:49:16.590Z,244
2018-06-19T02:49:29.071Z,244
2018-06-19T02:49:41.496Z,244
2018-06-19T02:49:53.940Z,175
2018-06-19T02:50:06.343Z,204
2018-06-19T02:50:18.752Z,209
2018-06-19T02:50:31.171Z,223
2018-06-19T02:50:43.584Z,207
2018-06-19T02:50:56.016Z,208
2018-06-19T02:51:08.426Z,208